Time;durP1;ratioP1;P1;durP2;ratioP2;P2;SDS_P1;SDS_P2;PMS_P1;PMS_P2;Temp;Humidity;BMP_temperature;BMP_pressure;BME280_temperature;BME280_humidity;BME280_pressure;Samples;Min_cycle;Max_cycle;Signal;HPM_P1;HPM_P2
2022/10/29 00:01:28;;;;;;;7.80;4.50;;;22.30;73.00;;;;;;213239;1291;23010;-51
2022/10/29 00:06:31;;;;;;;9.00;5.20;;;22.30;73.00;;;;;;216395;1288;22650;-56
2022/10/29 00:11:35;;;;;;;7.30;4.70;;;22.30;73.40;;;;;;213302;1288;24231;-56
2022/10/29 00:16:40;;;;;;;9.50;5.10;;;22.20;72.90;;;;;;216389;1293;23040;-57
2022/10/29 00:21:43;;;;;;;9.40;4.90;;;22.30;73.10;;;;;;213399;1291;22643;-57
2022/10/29 00:26:46;;;;;;;9.30;4.60;;;22.20;73.30;;;;;;213204;1291;22466;-56
2022/10/29 00:31:50;;;;;;;7.40;4.90;;;22.20;73.40;;;;;;213307;1291;23317;-57
2022/10/29 00:36:55;;;;;;;7.80;4.40;;;22.20;73.30;;;;;;213236;1283;22729;-56
2022/10/29 00:41:59;;;;;;;5.80;4.20;;;22.20;73.40;;;;;;213382;1288;22491;-56
2022/10/29 00:47:28;;;;;;;6.80;4.10;;;22.20;73.70;;;;;;213480;1297;24365;-57
2022/10/29 00:52:33;;;;;;;7.00;4.40;;;22.20;73.20;;;;;;213464;1291;25285;-56
2022/10/29 00:57:42;;;;;;;6.40;4.30;;;22.10;73.30;;;;;;213682;1308;26544;-56
2022/10/29 01:02:45;;;;;;;7.50;4.60;;;22.10;73.20;;;;;;213510;1302;25848;-56
2022/10/29 01:07:50;;;;;;;8.00;4.40;;;22.10;73.20;;;;;;213487;1296;24221;-56
2022/10/29 01:13:06;;;;;;;6.20;4.40;;;22.10;73.10;;;;;;214911;1283;24252;-56
2022/10/29 01:18:15;;;;;;;7.60;4.10;;;22.10;73.00;;;;;;213652;1287;25794;-57
2022/10/29 01:23:45;;;;;;;6.90;4.10;;;22.20;73.00;;;;;;213639;1297;22540;-57
2022/10/29 01:29:11;;;;;;;7.30;4.60;;;22.20;73.50;;;;;;213538;1280;24261;-58
2022/10/29 01:34:38;;;;;;;6.80;4.10;;;22.10;73.00;;;;;;213520;1288;22542;-57
2022/10/29 01:40:10;;;;;;;7.90;4.20;;;22.20;73.10;;;;;;213587;1297;22515;-57
2022/10/29 01:45:36;;;;;;;6.20;4.20;;;22.10;73.30;;;;;;213350;1283;23985;-58
2022/10/29 01:50:44;;;;;;;5.70;4.20;;;22.10;73.10;;;;;;213735;1296;22476;-58
2022/10/29 01:55:49;;;;;;;5.80;3.90;;;22.10;73.00;;;;;;213528;1286;22620;-57
2022/10/29 02:01:14;;;;;;;6.40;3.80;;;22.10;73.00;;;;;;213342;1295;24224;-58
2022/10/29 02:06:24;;;;;;;7.00;3.90;;;22.10;73.10;;;;;;213510;1288;22481;-56
2022/10/29 02:11:42;;;;;;;7.00;3.70;;;22.10;73.10;;;;;;213395;1288;22490;-58
2022/10/29 02:16:47;;;;;;;5.50;3.70;;;22.10;72.90;;;;;;213622;1295;22685;-56
2022/10/29 02:21:50;;;;;;;5.80;3.90;;;22.00;73.00;;;;;;213650;1310;25369;-58
2022/10/29 02:26:54;;;;;;;5.90;3.70;;;22.00;73.10;;;;;;213465;1293;24251;-55
2022/10/29 02:31:57;;;;;;;6.80;3.90;;;22.00;73.00;;;;;;213586;1294;22740;-57
2022/10/29 02:37:01;;;;;;;6.40;4.00;;;22.00;72.90;;;;;;213423;1304;25883;-56
2022/10/29 02:42:04;;;;;;;5.50;3.80;;;22.00;72.90;;;;;;213518;1293;25293;-57
2022/10/29 02:47:07;;;;;;;7.30;4.00;;;22.00;73.20;;;;;;213475;1288;24245;-57
2022/10/29 02:52:20;;;;;;;5.20;3.50;;;22.00;73.00;;;;;;213506;1296;24283;-57
2022/10/29 02:57:28;;;;;;;5.60;3.80;;;22.00;73.20;;;;;;213440;1287;26604;-57
2022/10/29 03:02:35;;;;;;;7.40;3.80;;;22.00;73.20;;;;;;213541;1283;24297;-56
2022/10/29 03:07:39;;;;;;;6.00;4.00;;;22.00;73.10;;;;;;213433;1283;22489;-57
2022/10/29 03:12:42;;;;;;;6.60;3.70;;;22.00;73.10;;;;;;213357;1287;22467;-57
2022/10/29 03:17:45;;;;;;;5.20;3.40;;;22.00;73.40;;;;;;213290;1309;26134;-58
2022/10/29 03:22:49;;;;;;;8.30;4.10;;;22.00;73.20;;;;;;213425;1283;24344;-57
2022/10/29 03:27:52;;;;;;;5.70;3.90;;;22.00;73.00;;;;;;213400;1288;25382;-57
2022/10/29 03:32:56;;;;;;;5.00;3.40;;;21.90;72.90;;;;;;213696;1287;22496;-58
2022/10/29 03:38:00;;;;;;;5.30;3.40;;;21.90;73.20;;;;;;213519;1288;24259;-57
2022/10/29 03:43:04;;;;;;;5.20;3.30;;;21.90;73.10;;;;;;213516;1283;24242;-57
2022/10/29 03:48:07;;;;;;;8.10;3.70;;;21.90;73.00;;;;;;213609;1293;24278;-58
2022/10/29 03:53:11;;;;;;;5.30;3.40;;;21.90;73.10;;;;;;213575;1284;22501;-61
2022/10/29 03:58:14;;;;;;;5.60;3.50;;;21.90;73.10;;;;;;213600;1296;24286;-57
2022/10/29 04:03:18;;;;;;;6.90;3.60;;;21.90;73.40;;;;;;213641;1284;22730;-55
2022/10/29 04:08:22;;;;;;;5.20;3.80;;;21.90;73.70;;;;;;213553;1300;22488;-59
2022/10/29 04:13:25;;;;;;;5.50;3.30;;;21.90;73.40;;;;;;213595;1286;22851;-58
2022/10/29 04:18:29;;;;;;;5.00;3.60;;;21.90;73.30;;;;;;213471;1304;24240;-57
2022/10/29 04:23:32;;;;;;;5.10;3.30;;;21.90;73.30;;;;;;213524;1288;22918;-58
2022/10/29 04:28:55;;;;;;;4.80;3.60;;;21.90;73.40;;;;;;213589;1288;23448;-57
2022/10/29 04:33:59;;;;;;;7.80;3.50;;;21.90;73.20;;;;;;213624;1286;25504;-56
2022/10/29 04:39:04;;;;;;;5.60;3.80;;;21.90;73.20;;;;;;213523;1287;25662;-58
2022/10/29 04:44:08;;;;;;;7.30;4.20;;;21.90;73.30;;;;;;213518;1286;22606;-57
2022/10/29 04:49:12;;;;;;;5.50;3.50;;;21.90;73.10;;;;;;213611;1288;22558;-58
2022/10/29 04:54:15;;;;;;;7.20;3.50;;;21.90;73.10;;;;;;213584;1280;23887;-56
2022/10/29 04:59:20;;;;;;;6.80;3.90;;;21.90;73.20;;;;;;213726;1288;23024;-57
2022/10/29 05:04:23;;;;;;;5.60;3.70;;;21.80;73.80;;;;;;213496;1288;22880;-58
2022/10/29 05:09:27;;;;;;;6.80;3.80;;;21.80;73.50;;;;;;213506;1284;23065;-57
2022/10/29 05:14:30;;;;;;;6.00;3.80;;;21.80;73.60;;;;;;213468;1283;24405;-59
2022/10/29 05:19:34;;;;;;;7.00;3.50;;;21.80;73.60;;;;;;213508;1284;22467;-59
2022/10/29 05:24:54;;;;;;;5.80;3.90;;;21.80;73.50;;;;;;213610;1286;22709;-57
2022/10/29 05:29:57;;;;;;;5.50;3.90;;;21.80;73.70;;;;;;213504;1287;22473;-57
2022/10/29 05:35:04;;;;;;;5.80;4.10;;;21.80;74.10;;;;;;213657;1287;25210;-58
2022/10/29 05:40:11;;;;;;;7.10;4.10;;;21.70;73.70;;;;;;213733;1280;24200;-57
2022/10/29 05:45:16;;;;;;;5.00;3.60;;;21.70;73.50;;;;;;213529;1287;22479;-57
2022/10/29 05:50:20;;;;;;;5.20;3.40;;;21.70;73.60;;;;;;213705;1288;22606;-57
2022/10/29 05:55:28;;;;;;;6.50;3.90;;;21.70;73.50;;;;;;213629;1288;22531;-57
2022/10/29 06:00:36;;;;;;;6.80;4.10;;;21.70;74.00;;;;;;213618;1280;25662;-58
2022/10/29 06:05:41;;;;;;;5.60;3.50;;;21.70;73.60;;;;;;213625;1280;24350;-57
2022/10/29 06:10:47;;;;;;;4.40;3.50;;;21.70;73.70;;;;;;213251;1288;23219;-58
2022/10/29 06:15:56;;;;;;;6.90;3.70;;;21.70;73.70;;;;;;213557;1287;24247;-59
2022/10/29 06:21:01;;;;;;;6.50;3.70;;;21.70;73.60;;;;;;213674;1281;24215;-57
2022/10/29 06:26:14;;;;;;;8.30;4.10;;;21.70;73.70;;;;;;213487;1288;23357;-58
2022/10/29 06:31:18;;;;;;;6.60;3.80;;;21.70;73.70;;;;;;213481;1280;22493;-57
2022/10/29 06:36:22;;;;;;;6.20;3.60;;;21.70;74.00;;;;;;213437;1288;22881;-57
2022/10/29 06:41:26;;;;;;;5.40;3.30;;;21.60;73.20;;;;;;213557;1288;22478;-57
2022/10/29 06:46:30;;;;;;;5.30;3.60;;;21.70;73.90;;;;;;213515;1293;24249;-56
2022/10/29 06:51:34;;;;;;;8.30;3.90;;;21.70;73.30;;;;;;213422;1284;22720;-58
2022/10/29 06:56:38;;;;;;;6.00;3.20;;;21.70;73.10;;;;;;213508;1293;23908;-57
2022/10/29 07:01:43;;;;;;;4.90;3.20;;;21.70;73.30;;;;;;213523;1287;24782;-57
2022/10/29 07:06:46;;;;;;;5.10;3.60;;;21.70;72.80;;;;;;213688;1283;25357;-59
2022/10/29 07:11:50;;;;;;;8.60;3.60;;;21.70;72.90;;;;;;213677;1280;23204;-57
2022/10/29 07:16:55;;;;;;;12.40;3.70;;;21.70;72.80;;;;;;213587;1290;22492;-60
2022/10/29 07:22:01;;;;;;;5.80;3.50;;;21.70;73.50;;;;;;213551;1280;25693;-57
2022/10/29 07:27:06;;;;;;;5.20;3.30;;;21.70;73.00;;;;;;213628;1286;25211;-58
2022/10/29 07:32:09;;;;;;;6.30;3.10;;;21.70;73.00;;;;;;213648;1287;22720;-56
2022/10/29 07:37:16;;;;;;;8.40;3.60;;;21.70;73.00;;;;;;213598;1280;22522;-59
2022/10/29 07:42:21;;;;;;;7.80;3.70;;;21.70;72.80;;;;;;213540;1286;25911;-58
2022/10/29 07:47:26;;;;;;;11.20;3.90;;;21.70;72.60;;;;;;213637;1286;22495;-58
2022/10/29 07:52:38;;;;;;;5.80;3.50;;;21.70;72.60;;;;;;213494;1284;25273;-59
2022/10/29 07:58:03;;;;;;;6.00;3.30;;;21.70;72.90;;;;;;213512;1280;25293;-57
2022/10/29 08:03:27;;;;;;;8.80;3.70;;;21.70;73.10;;;;;;213349;1282;22543;-58
2022/10/29 08:08:44;;;;;;;11.40;3.80;;;21.70;73.00;;;;;;213409;1284;26494;-59
2022/10/29 08:13:50;;;;;;;5.80;3.30;;;21.80;73.10;;;;;;213116;1280;24353;-59
2022/10/29 08:19:06;;;;;;;6.30;3.40;;;21.80;73.10;;;;;;213074;1286;22531;-61
2022/10/29 08:24:21;;;;;;;6.00;3.90;;;21.90;72.90;;;;;;213335;1280;22475;-59
2022/10/29 08:29:37;;;;;;;7.10;3.80;;;21.80;72.60;;;;;;213134;1288;22920;-52
2022/10/29 08:34:40;;;;;;;8.60;3.60;;;21.90;72.50;;;;;;213129;1286;24189;-59
2022/10/29 08:39:47;;;;;;;5.50;3.50;;;21.90;72.40;;;;;;213122;1281;23978;-59
2022/10/29 08:45:04;;;;;;;6.00;3.80;;;21.90;72.60;;;;;;213349;1283;24249;-59
2022/10/29 08:50:16;;;;;;;15.80;4.30;;;21.90;72.60;;;;;;213408;1278;25325;-59
2022/10/29 08:55:28;;;;;;;7.00;3.50;;;22.00;72.70;;;;;;213380;1289;24363;-61
2022/10/29 09:00:40;;;;;;;6.40;4.20;;;22.10;72.60;;;;;;213401;1280;25441;-59
2022/10/29 09:05:58;;;;;;;15.50;3.80;;;22.10;72.50;;;;;;213358;1281;22501;-59
2022/10/29 09:11:39;;;;;;;11.00;4.00;;;22.10;72.70;;;;;;213249;1290;22520;-59
2022/10/29 09:16:53;;;;;;;7.00;3.50;;;22.20;72.20;;;;;;213381;1280;23173;-59
2022/10/29 09:22:00;;;;;;;8.10;3.00;;;22.20;72.20;;;;;;213235;1280;22493;-61
2022/10/29 09:27:28;;;;;;;7.60;3.70;;;22.20;72.30;;;;;;213222;1287;23845;-61
2022/10/29 09:32:38;;;;;;;9.80;3.60;;;22.30;72.80;;;;;;213563;1288;25255;-61
2022/10/29 09:37:50;;;;;;;9.70;3.80;;;22.40;72.70;;;;;;213400;1286;22546;-60
2022/10/29 09:42:54;;;;;;;10.20;3.90;;;22.40;73.00;;;;;;213452;1286;26485;-60
2022/10/29 09:47:58;;;;;;;8.50;3.60;;;22.50;72.00;;;;;;213575;1291;22845;-61
2022/10/29 09:53:02;;;;;;;13.50;4.20;;;22.50;72.00;;;;;;213243;1286;22526;-61
2022/10/29 09:58:06;;;;;;;10.60;3.90;;;22.50;72.50;;;;;;213541;1281;23883;-56
2022/10/29 10:03:18;;;;;;;8.90;3.40;;;22.60;72.80;;;;;;213514;1288;24348;-61
2022/10/29 10:08:21;;;;;;;9.90;3.60;;;22.70;72.70;;;;;;213214;1288;24368;-61
2022/10/29 10:13:27;;;;;;;6.80;3.40;;;22.70;72.60;;;;;;213289;1280;25361;-60
2022/10/29 10:18:31;;;;;;;8.90;3.10;;;22.70;72.30;;;;;;213507;1280;23896;-58
2022/10/29 10:23:46;;;;;;;8.80;3.10;;;22.60;71.50;;;;;;213171;1288;22945;-57
2022/10/29 10:29:12;;;;;;;10.10;4.70;;;22.70;71.90;;;;;;214329;1283;22595;-59
2022/10/29 10:34:45;;;;;;;9.60;3.60;;;22.70;71.90;;;;;;213490;1286;22523;-61
2022/10/29 10:39:53;;;;;;;7.90;3.10;;;22.70;70.90;;;;;;213435;1287;24261;-61
2022/10/29 10:45:15;;;;;;;9.60;3.40;;;23.00;69.60;;;;;;213458;1286;22615;-62
2022/10/29 10:50:31;;;;;;;9.30;3.90;;;23.00;68.90;;;;;;213505;1286;22504;-60
2022/10/29 10:55:37;;;;;;;8.30;3.60;;;23.10;69.00;;;;;;213508;1286;26535;-59
2022/10/29 11:01:09;;;;;;;12.80;3.70;;;23.20;68.50;;;;;;213372;1280;24262;-56
2022/10/29 11:06:27;;;;;;;8.30;3.30;;;23.30;67.90;;;;;;213504;1294;22505;-58
2022/10/29 11:11:57;;;;;;;13.80;3.80;;;23.30;67.50;;;;;;213452;1290;22543;-57
2022/10/29 11:17:13;;;;;;;9.70;3.80;;;23.40;67.30;;;;;;213613;1280;22594;-57
2022/10/29 11:22:58;;;;;;;10.20;3.40;;;23.40;67.10;;;;;;213492;1288;22473;-56
2022/10/29 11:29:00;;;;;;;10.00;3.70;;;23.60;67.00;;;;;;213793;1279;25478;-56
2022/10/29 11:34:22;;;;;;;10.70;3.80;;;23.60;66.00;;;;;;212846;1288;22486;-58
2022/10/29 11:39:51;;;;;;;9.50;3.80;;;23.70;65.40;;;;;;213598;1310;22483;-58
2022/10/29 11:45:04;;;;;;;10.70;3.50;;;23.70;66.30;;;;;;214015;1280;25539;-59
2022/10/29 11:50:24;;;;;;;12.50;4.40;;;23.60;65.50;;;;;;215101;1294;22758;-56
2022/10/29 11:55:43;;;;;;;7.80;3.60;;;23.70;64.20;;;;;;214278;1294;22795;-58
2022/10/29 12:00:59;;;;;;;7.70;3.30;;;23.70;65.10;;;;;;213669;1303;23948;-59
2022/10/29 12:06:41;;;;;;;10.00;3.80;;;23.70;65.50;;;;;;213766;1288;25642;-58
2022/10/29 12:12:07;;;;;;;8.80;3.60;;;23.70;65.70;;;;;;213717;1288;24463;-59
2022/10/29 12:17:32;;;;;;;9.00;3.50;;;23.70;65.40;;;;;;213550;1286;22502;-59
2022/10/29 12:22:43;;;;;;;11.80;4.20;;;23.70;65.30;;;;;;213622;1283;24307;-58
2022/10/29 12:28:03;;;;;;;8.60;3.40;;;23.80;64.50;;;;;;213497;1280;25419;-57
2022/10/29 12:33:27;;;;;;;9.50;3.60;;;23.80;65.20;;;;;;213468;1284;22475;-59
2022/10/29 12:38:59;;;;;;;8.10;3.80;;;23.70;65.60;;;;;;213579;1282;24392;-59
2022/10/29 12:44:08;;;;;;;8.60;3.50;;;23.70;66.50;;;;;;213560;1287;22499;-58
2022/10/29 12:49:43;;;;;;;10.40;3.50;;;23.60;65.70;;;;;;213637;1293;24375;-58
2022/10/29 12:54:51;;;;;;;6.90;3.90;;;23.70;66.60;;;;;;213332;1288;22510;-57
2022/10/29 12:59:55;;;;;;;14.00;3.80;;;23.70;66.40;;;;;;213751;1286;24243;-57
2022/10/29 13:05:04;;;;;;;12.70;3.60;;;23.70;68.70;;;;;;213863;1290;23237;-57
2022/10/29 13:10:38;;;;;;;11.10;3.80;;;23.70;67.50;;;;;;213732;1289;22837;-59
2022/10/29 13:15:48;;;;;;;10.90;3.60;;;23.60;66.10;;;;;;213428;1296;22496;-57
2022/10/29 13:20:54;;;;;;;10.40;3.60;;;23.60;66.30;;;;;;213661;1292;22526;-58
2022/10/29 13:25:58;;;;;;;15.20;4.00;;;23.50;66.60;;;;;;213810;1289;22509;-54
2022/10/29 13:31:04;;;;;;;10.20;3.80;;;23.40;66.80;;;;;;213785;1288;25541;-57
2022/10/29 13:36:28;;;;;;;11.90;3.70;;;23.50;66.10;;;;;;213533;1288;24074;-59
2022/10/29 13:41:41;;;;;;;12.30;3.60;;;23.50;64.90;;;;;;213406;1288;24393;-59
2022/10/29 13:47:01;;;;;;;12.30;3.90;;;23.60;65.60;;;;;;213511;1280;24395;-57
2022/10/29 13:52:09;;;;;;;11.30;3.80;;;23.50;66.60;;;;;;213496;1287;24279;-55
2022/10/29 13:57:28;;;;;;;8.20;3.70;;;23.50;68.00;;;;;;213519;1280;24225;-56
2022/10/29 14:02:41;;;;;;;11.00;4.30;;;23.50;68.00;;;;;;213434;1285;23868;-59
2022/10/29 14:08:25;;;;;;;8.50;4.00;;;23.40;67.90;;;;;;213558;1280;25377;-56
2022/10/29 14:13:45;;;;;;;9.40;4.00;;;23.30;68.60;;;;;;213478;1283;24072;-59
2022/10/29 14:18:49;;;;;;;11.90;4.50;;;23.30;69.10;;;;;;213473;1286;22490;-58
2022/10/29 14:23:54;;;;;;;13.00;5.00;;;23.30;69.90;;;;;;213658;1283;23062;-57
2022/10/29 14:29:21;;;;;;;15.60;5.50;;;23.30;69.80;;;;;;213571;1288;22840;-58
2022/10/29 14:34:26;;;;;;;11.80;4.80;;;23.30;70.10;;;;;;213638;1288;25636;-58
2022/10/29 14:39:34;;;;;;;12.60;4.70;;;23.20;70.40;;;;;;213683;1287;25590;-59
2022/10/29 14:45:01;;;;;;;10.80;5.50;;;23.20;70.50;;;;;;213381;1294;22629;-58
2022/10/29 14:50:19;;;;;;;11.80;5.10;;;23.20;70.90;;;;;;213761;1287;22568;-58
2022/10/29 14:55:32;;;;;;;11.40;5.60;;;23.20;71.00;;;;;;213526;1281;22847;-61
2022/10/29 15:00:37;;;;;;;13.20;5.20;;;23.20;71.10;;;;;;213759;1288;22607;-58
2022/10/29 15:05:42;;;;;;;15.60;6.70;;;23.10;71.00;;;;;;213737;1284;24004;-58
2022/10/29 15:10:55;;;;;;;12.40;5.50;;;23.10;71.70;;;;;;213529;1288;22479;-59
2022/10/29 15:16:05;;;;;;;11.00;5.90;;;23.10;72.20;;;;;;213583;1287;24243;-59
2022/10/29 15:21:09;;;;;;;15.10;6.40;;;23.20;72.50;;;;;;213516;1288;24242;-57
2022/10/29 15:26:20;;;;;;;13.60;6.30;;;23.10;72.50;;;;;;213537;1286;22515;-56
2022/10/29 15:31:42;;;;;;;13.60;6.30;;;23.20;72.50;;;;;;213444;1280;25344;-58
2022/10/29 15:36:49;;;;;;;11.80;6.10;;;23.10;73.00;;;;;;213470;1287;22495;-57
2022/10/29 15:41:58;;;;;;;16.20;6.40;;;23.10;73.40;;;;;;213372;1288;24053;-58
2022/10/29 15:47:18;;;;;;;14.30;6.60;;;23.10;72.90;;;;;;213537;1288;22508;-58
2022/10/29 15:52:37;;;;;;;15.10;6.90;;;23.00;73.20;;;;;;213506;1288;22508;-59
2022/10/29 15:57:51;;;;;;;13.90;6.30;;;23.10;73.50;;;;;;213584;1284;26564;-57
2022/10/29 16:03:10;;;;;;;16.00;7.00;;;23.00;73.20;;;;;;213607;1294;22904;-59
2022/10/29 16:08:33;;;;;;;13.20;6.50;;;23.00;73.90;;;;;;213553;1288;22535;-60
2022/10/29 16:13:43;;;;;;;12.50;6.60;;;23.10;74.60;;;;;;213548;1285;22626;-61
2022/10/29 16:18:53;;;;;;;14.00;6.30;;;23.10;74.40;;;;;;213911;1293;22494;-58
2022/10/29 16:23:56;;;;;;;17.20;7.10;;;23.00;74.60;;;;;;213617;1284;25496;-56
2022/10/29 16:29:03;;;;;;;16.60;7.20;;;23.00;74.60;;;;;;213543;1284;24279;-56
2022/10/29 16:34:14;;;;;;;17.40;7.30;;;23.00;75.00;;;;;;213636;1283;25342;-61
2022/10/29 16:39:27;;;;;;;21.40;6.60;;;23.10;75.00;;;;;;213533;1288;22918;-60
2022/10/29 16:44:33;;;;;;;16.60;6.80;;;23.10;75.20;;;;;;213561;1280;22504;-58
2022/10/29 16:49:39;;;;;;;17.00;7.00;;;23.10;75.10;;;;;;213683;1288;23899;-57
2022/10/29 16:54:49;;;;;;;15.20;6.70;;;23.10;75.60;;;;;;213504;1286;24300;-60
2022/10/29 17:00:07;;;;;;;17.50;6.90;;;23.00;75.40;;;;;;213630;1287;24339;-58
2022/10/29 17:05:18;;;;;;;15.90;7.10;;;23.20;75.10;;;;;;213652;1288;23371;-61
2022/10/29 17:10:25;;;;;;;13.40;6.50;;;23.40;73.70;;;;;;213632;1288;22609;-58
2022/10/29 17:15:37;;;;;;;17.90;7.20;;;23.30;74.30;;;;;;213584;1288;22533;-61
2022/10/29 17:21:13;;;;;;;18.70;7.20;;;23.20;74.70;;;;;;213294;1283;22481;-60
2022/10/29 17:27:06;;;;;;;17.80;7.20;;;23.20;74.70;;;;;;213556;1287;25241;-61
2022/10/29 17:32:31;;;;;;;14.20;6.50;;;23.20;75.00;;;;;;213583;1288;25853;-62
2022/10/29 17:37:49;;;;;;;13.50;7.00;;;23.20;75.70;;;;;;214037;1280;22527;-61
2022/10/29 17:44:00;;;;;;;14.40;7.70;;;23.10;75.50;;;;;;213707;1288;22539;-60
2022/10/29 17:49:30;;;;;;;14.50;7.40;;;23.10;74.90;;;;;;213761;1288;22481;-60
2022/10/29 17:54:47;;;;;;;17.60;7.60;;;23.10;75.10;;;;;;213778;1288;22692;-61
2022/10/29 18:00:09;;;;;;;13.90;7.70;;;23.10;75.40;;;;;;213849;1296;23865;-60
2022/10/29 18:05:16;;;;;;;14.10;7.50;;;23.10;75.00;;;;;;213627;1289;25984;-63
2022/10/29 18:10:25;;;;;;;13.90;6.90;;;23.10;75.10;;;;;;213619;1288;144753;-62
2022/10/29 18:15:32;;;;;;;14.90;7.70;;;23.10;75.00;;;;;;213823;1291;22937;-62
2022/10/29 18:20:58;;;;;;;14.30;7.50;;;23.10;74.90;;;;;;213675;1289;22476;-59
2022/10/29 18:26:39;;;;;;;11.90;6.90;;;23.10;75.00;;;;;;213737;1291;22600;-60
2022/10/29 18:32:51;;;;;;;12.90;7.50;;;23.10;75.00;;;;;;213656;1284;24213;-61
2022/10/29 18:38:18;;;;;;;10.90;6.90;;;23.00;74.40;;;;;;212405;1302;25505;-62
2022/10/29 18:43:43;;;;;;;17.00;7.40;;;23.00;74.40;;;;;;212496;1292;22656;-61
2022/10/29 18:49:15;;;;;;;11.90;7.00;;;23.10;74.70;;;;;;213803;1293;22489;-61
2022/10/29 18:54:39;;;;;;;16.80;8.00;;;23.10;74.70;;;;;;213872;1283;22481;-61
2022/10/29 19:00:07;;;;;;;14.00;7.60;;;23.00;74.80;;;;;;213780;1280;22848;-60
2022/10/29 19:05:44;;;;;;;12.90;7.10;;;23.00;74.30;;;;;;213761;1291;24246;-62
2022/10/29 19:11:29;;;;;;;15.20;7.70;;;23.00;74.30;;;;;;213950;1281;22528;-62
2022/10/29 19:16:52;;;;;;;12.30;7.90;;;23.10;74.60;;;;;;213425;1290;24334;-61
2022/10/29 19:22:41;;;;;;;11.40;7.30;;;23.10;74.20;;;;;;213592;1283;22479;-62
2022/10/29 19:28:13;;;;;;;23.30;8.00;;;23.10;74.10;;;;;;213533;1294;24378;-60
2022/10/29 19:33:36;;;;;;;13.80;7.70;;;23.10;73.90;;;;;;213492;1290;22883;-61
2022/10/29 19:38:41;;;;;;;18.40;8.10;;;23.10;73.80;;;;;;213556;1284;22530;-61
2022/10/29 19:43:50;;;;;;;13.80;8.40;;;23.10;74.10;;;;;;213525;1291;22517;-60
2022/10/29 19:49:29;;;;;;;13.40;7.90;;;23.10;74.40;;;;;;213470;1290;23365;-60
2022/10/29 19:54:40;;;;;;;14.80;7.70;;;23.10;74.10;;;;;;213434;1291;25083;-61
2022/10/29 19:59:53;;;;;;;28.10;9.30;;;23.10;74.00;;;;;;213374;1288;22639;-59
2022/10/29 20:05:22;;;;;;;12.10;7.50;;;23.10;73.90;;;;;;213423;1291;26704;-58
2022/10/29 20:10:31;;;;;;;12.00;7.40;;;23.10;73.90;;;;;;213427;1291;25646;-64
2022/10/29 20:16:21;;;;;;;17.50;7.60;;;23.10;73.90;;;;;;213492;1288;24243;-61
2022/10/29 20:22:10;;;;;;;14.70;7.90;;;23.10;74.10;;;;;;213343;1284;22533;-60
2022/10/29 20:28:07;;;;;;;14.20;8.00;;;23.10;74.10;;;;;;213112;1292;24185;-59
2022/10/29 20:33:27;;;;;;;13.00;7.50;;;23.10;74.40;;;;;;213299;1289;22531;-59
2022/10/29 20:39:41;;;;;;;20.40;7.70;;;23.10;74.60;;;;;;213542;1293;22467;-61
2022/10/29 20:45:20;;;;;;;13.70;7.40;;;23.10;75.20;;;;;;213278;1294;23859;-60
2022/10/29 20:51:23;;;;;;;;;;;;;;;;;;;;;
2022/10/29 20:56:48;;;;;;;14.30;6.70;;;23.10;75.00;;;;;;213337;1280;24214;-59
2022/10/29 21:02:15;;;;;;;11.40;7.00;;;23.10;74.90;;;;;;213226;1300;22486;-59
2022/10/29 21:07:25;;;;;;;12.10;6.70;;;23.10;75.20;;;;;;213395;1284;24031;-60
2022/10/29 21:12:46;;;;;;;16.30;7.50;;;23.10;75.10;;;;;;213345;1284;24293;-60
2022/10/29 21:18:11;;;;;;;11.90;7.20;;;23.00;74.90;;;;;;213479;1280;24370;-60
2022/10/29 21:23:38;;;;;;;10.70;7.20;;;23.00;74.80;;;;;;213300;1286;25412;-60
2022/10/29 21:29:08;;;;;;;9.90;7.10;;;23.00;74.80;;;;;;213359;1287;22476;-61
2022/10/29 21:34:27;;;;;;;11.00;6.80;;;23.00;74.70;;;;;;213424;1284;22544;-61
2022/10/29 21:39:44;;;;;;;12.60;6.50;;;23.00;75.70;;;;;;213459;1291;24252;-61
2022/10/29 21:44:48;;;;;;;11.10;6.80;;;23.00;75.30;;;;;;213265;1283;24250;-62
2022/10/29 21:49:55;;;;;;;11.30;6.10;;;23.00;75.20;;;;;;213485;1287;25443;-62
2022/10/29 21:55:05;;;;;;;10.30;6.60;;;23.00;75.10;;;;;;213509;1296;25522;-62
2022/10/29 22:00:22;;;;;;;10.50;7.30;;;23.00;75.20;;;;;;213415;1283;27109;-60
2022/10/29 22:05:32;;;;;;;14.10;8.20;;;23.00;75.50;;;;;;213468;1292;25469;-61
2022/10/29 22:10:47;;;;;;;17.80;8.40;;;23.00;75.60;;;;;;213299;1285;25665;-60
2022/10/29 22:16:00;;;;;;;11.00;6.80;;;23.00;76.80;;;;;;213500;1299;22717;-62
2022/10/29 22:21:14;;;;;;;12.70;7.00;;;23.00;76.50;;;;;;213312;1290;23475;-62
2022/10/29 22:26:20;;;;;;;13.20;6.90;;;23.00;76.40;;;;;;213450;1288;24235;-62
2022/10/29 22:31:26;;;;;;;10.70;6.60;;;22.90;76.70;;;;;;213533;1287;22483;-61
2022/10/29 22:36:36;;;;;;;10.00;6.60;;;22.90;76.70;;;;;;213444;1291;25321;-62
2022/10/29 22:41:48;;;;;;;10.50;6.70;;;22.90;76.80;;;;;;213513;1290;22495;-60
2022/10/29 22:46:52;;;;;;;11.90;6.50;;;22.90;77.10;;;;;;213332;1283;22700;-61
2022/10/29 22:52:04;;;;;;;9.90;6.70;;;22.90;76.80;;;;;;213220;1283;22471;-61
2022/10/29 22:57:34;;;;;;;12.00;6.70;;;22.90;76.80;;;;;;213358;1287;25325;-63
2022/10/29 23:02:38;;;;;;;10.10;6.80;;;22.90;76.80;;;;;;212778;1291;24258;-59
2022/10/29 23:07:49;;;;;;;;;;;22.90;76.70;;;;;;212829;1296;24258;-61
2022/10/29 23:12:57;;;;;;;10.00;6.80;;;22.90;76.10;;;;;;212802;1297;22986;-60
2022/10/29 23:18:00;;;;;;;9.10;5.90;;;22.80;76.50;;;;;;212882;1287;23878;-61
2022/10/29 23:23:19;;;;;;;11.00;6.30;;;22.90;76.30;;;;;;212996;1312;25462;-60
2022/10/29 23:28:33;;;;;;;12.00;6.10;;;22.90;76.00;;;;;;212865;1286;22581;-59
2022/10/29 23:33:37;;;;;;;11.30;6.60;;;22.80;76.20;;;;;;213308;1286;25492;-60
2022/10/29 23:38:41;;;;;;;10.20;6.90;;;22.80;76.30;;;;;;213419;1286;25323;-58
2022/10/29 23:43:47;;;;;;;10.90;6.70;;;22.80;76.40;;;;;;213787;1283;22577;-59
2022/10/29 23:48:51;;;;;;;9.90;7.00;;;22.80;76.20;;;;;;213625;1286;25451;-59
2022/10/29 23:54:00;;;;;;;10.00;7.00;;;22.80;76.10;;;;;;213560;1287;25550;-59
2022/10/29 23:59:06;;;;;;;9.40;6.60;;;22.80;76.10;;;;;;213515;1281;22680;-58
